Time;durP1;ratioP1;P1;durP2;ratioP2;P2;SDS_P1;SDS_P2;PMS_P1;PMS_P2;Temp;Humidity;BMP_temperature;BMP_pressure;BME280_temperature;BME280_humidity;BME280_pressure;Samples;Min_cycle;Max_cycle;Signal;HPM_P1;HPM_P2
2022/10/26 00:00:03;;;;;;;11.65;3.35;;;;;;;;;;5009621;28;20075;-79
2022/10/26 00:02:30;;;;;;;9.88;3.13;;;;;;;;;;5026939;28;20050;-80
2022/10/26 00:04:56;;;;;;;9.27;3.30;;;;;;;;;;5011156;28;20060;-79
2022/10/26 00:07:23;;;;;;;7.30;3.10;;;;;;;;;;5011507;28;20073;-79
2022/10/26 00:09:49;;;;;;;5.75;3.22;;;;;;;;;;5028426;28;20155;-79
2022/10/26 00:12:16;;;;;;;6.47;3.33;;;;;;;;;;5018232;28;20413;-80
2022/10/26 00:14:42;;;;;;;9.32;3.00;;;;;;;;;;5011311;28;20441;-78
2022/10/26 00:17:09;;;;;;;5.95;3.30;;;;;;;;;;5009558;28;20045;-80
2022/10/26 00:19:36;;;;;;;5.00;2.60;;;;;;;;;;5006232;28;20049;-80
2022/10/26 00:22:03;;;;;;;3.60;2.40;;;;;;;;;;4992121;28;20050;-79
2022/10/26 00:24:29;;;;;;;6.03;2.78;;;;;;;;;;4990217;28;20046;-80
2022/10/26 00:26:56;;;;;;;7.63;2.75;;;;;;;;;;5011542;28;20541;-78
2022/10/26 00:29:22;;;;;;;9.30;2.53;;;;;;;;;;5008674;28;20522;-78
2022/10/26 00:31:48;;;;;;;5.93;2.88;;;;;;;;;;5010179;28;20057;-76
2022/10/26 00:34:15;;;;;;;8.18;3.60;;;;;;;;;;5011738;28;20046;-78
2022/10/26 00:36:41;;;;;;;7.63;3.45;;;;;;;;;;5012964;28;20053;-77
2022/10/26 00:39:09;;;;;;;11.02;3.65;;;;;;;;;;5011706;28;20069;-77
2022/10/26 00:41:36;;;;;;;5.63;3.50;;;;;;;;;;5012603;28;20061;-78
2022/10/26 00:44:22;;;;;;;7.03;3.67;;;;;;;;;;5011065;28;20465;-79
2022/10/26 00:46:48;;;;;;;10.57;3.72;;;;;;;;;;5013091;28;20057;-78
2022/10/26 00:49:18;;;;;;;9.73;3.80;;;;;;;;;;5012342;28;20057;-79
2022/10/26 00:51:50;;;;;;;10.70;4.00;;;;;;;;;;5013419;28;20506;-80
2022/10/26 00:54:18;;;;;;;11.32;4.55;;;;;;;;;;5011231;28;20089;-78
2022/10/26 00:56:48;;;;;;;10.18;4.53;;;;;;;;;;5013552;28;20080;-79
2022/10/26 00:59:15;;;;;;;14.30;4.30;;;;;;;;;;5014793;28;20073;-79
2022/10/26 01:01:45;;;;;;;7.38;4.05;;;;;;;;;;4996953;28;20210;-79
2022/10/26 01:04:12;;;;;;;6.57;4.15;;;;;;;;;;5013035;28;20050;-78
2022/10/26 01:06:40;;;;;;;8.88;4.05;;;;;;;;;;5016204;28;20056;-78
2022/10/26 01:09:06;;;;;;;6.90;3.45;;;;;;;;;;5011541;28;20057;-78
2022/10/26 01:11:32;;;;;;;6.72;3.45;;;;;;;;;;5013901;28;20413;-80
2022/10/26 01:14:01;;;;;;;7.32;3.60;;;;;;;;;;5012250;28;20054;-77
2022/10/26 01:16:39;;;;;;;9.27;3.55;;;;;;;;;;4996218;28;20181;-78
2022/10/26 01:19:11;;;;;;;7.57;3.30;;;;;;;;;;5011445;28;20101;-78
2022/10/26 01:21:40;;;;;;;9.18;3.40;;;;;;;;;;5012861;28;20050;-78
2022/10/26 01:24:07;;;;;;;9.40;3.50;;;;;;;;;;4992312;28;20046;-77
2022/10/26 01:26:36;;;;;;;9.77;3.45;;;;;;;;;;5012173;28;20068;-78
2022/10/26 01:29:03;;;;;;;6.70;3.55;;;;;;;;;;5011363;28;20060;-77
2022/10/26 01:31:34;;;;;;;7.10;3.65;;;;;;;;;;4994133;28;20050;-78
2022/10/26 01:34:05;;;;;;;9.43;4.10;;;;;;;;;;5009769;28;20050;-77
2022/10/26 01:36:35;;;;;;;9.88;3.55;;;;;;;;;;5012111;28;20050;-79
2022/10/26 01:39:13;;;;;;;7.43;3.40;;;;;;;;;;4993842;28;20297;-78
2022/10/26 01:41:49;;;;;;;8.70;3.42;;;;;;;;;;5011718;28;20050;-77
2022/10/26 01:44:19;;;;;;;7.18;3.30;;;;;;;;;;5014014;28;20042;-79
2022/10/26 01:46:47;;;;;;;6.63;3.95;;;;;;;;;;5015300;28;20580;-79
2022/10/26 01:49:15;;;;;;;7.22;3.60;;;;;;;;;;5013770;28;20049;-79
2022/10/26 01:51:43;;;;;;;8.52;3.60;;;;;;;;;;5016895;28;20113;-79
2022/10/26 01:54:09;;;;;;;8.88;3.42;;;;;;;;;;5014083;28;20054;-79
2022/10/26 01:56:38;;;;;;;8.20;4.00;;;;;;;;;;5017711;28;20042;-79
2022/10/26 01:59:12;;;;;;;11.00;3.65;;;;;;;;;;5017321;28;20042;-80
2022/10/26 02:01:48;;;;;;;5.40;3.22;;;;;;;;;;5018587;28;20060;-79
2022/10/26 02:04:14;;;;;;;;;;;;;;;;;;5015078;28;20045;-79
2022/10/26 02:06:53;;;;;;;5.63;3.35;;;;;;;;;;5015349;28;19968;-78
2022/10/26 02:09:25;;;;;;;9.18;3.95;;;;;;;;;;5009795;28;20046;-79
2022/10/26 02:11:52;;;;;;;7.70;3.63;;;;;;;;;;5010724;28;20053;-78
2022/10/26 02:14:37;;;;;;;7.72;3.95;;;;;;;;;;5009687;28;20057;-78
2022/10/26 02:17:13;;;;;;;10.45;3.95;;;;;;;;;;5011674;28;20386;-78
2022/10/26 02:19:39;;;;;;;;;;;;;;;;;;5007715;28;20047;-78
2022/10/26 02:22:14;;;;;;;7.22;3.80;;;;;;;;;;5010254;28;20185;-78
2022/10/26 02:24:41;;;;;;;7.80;4.28;;;;;;;;;;5009275;28;20068;-79
2022/10/26 02:27:10;;;;;;;10.15;3.88;;;;;;;;;;5010866;28;20210;-78
2022/10/26 02:29:37;;;;;;;7.75;3.20;;;;;;;;;;5009898;28;20049;-78
2022/10/26 02:32:05;;;;;;;8.32;4.22;;;;;;;;;;5016603;28;20054;-78
2022/10/26 02:34:33;;;;;;;9.18;4.13;;;;;;;;;;5008892;28;20054;-78
2022/10/26 02:37:00;;;;;;;9.20;3.95;;;;;;;;;;5010774;28;20046;-78
2022/10/26 02:39:28;;;;;;;12.13;3.72;;;;;;;;;;5008822;28;20053;-78
2022/10/26 02:41:55;;;;;;;7.47;4.28;;;;;;;;;;4992877;28;20061;-78
2022/10/26 02:44:26;;;;;;;5.68;3.67;;;;;;;;;;4991069;28;20061;-78
2022/10/26 02:46:53;;;;;;;6.22;3.95;;;;;;;;;;5010334;28;20050;-78
2022/10/26 02:49:20;;;;;;;9.32;3.85;;;;;;;;;;5009054;28;20064;-78
2022/10/26 02:52:05;;;;;;;6.50;3.72;;;;;;;;;;5010291;28;20065;-79
2022/10/26 02:54:38;;;;;;;10.45;3.72;;;;;;;;;;5007490;28;20050;-78
2022/10/26 02:57:10;;;;;;;7.30;3.58;;;;;;;;;;5009251;28;20042;-80
2022/10/26 02:59:41;;;;;;;9.60;3.70;;;;;;;;;;5009860;28;20296;-79
2022/10/26 03:02:08;;;;;;;6.38;3.63;;;;;;;;;;5009273;28;20059;-79
2022/10/26 03:04:34;;;;;;;5.85;3.83;;;;;;;;;;5008468;28;20050;-79
2022/10/26 03:07:01;;;;;;;5.78;3.50;;;;;;;;;;4992756;28;20053;-79
2022/10/26 03:09:27;;;;;;;7.65;3.97;;;;;;;;;;5008828;28;20046;-79
2022/10/26 03:11:54;;;;;;;7.35;3.60;;;;;;;;;;5019526;28;20064;-80
2022/10/26 03:14:20;;;;;;;8.82;3.80;;;;;;;;;;5019874;28;20077;-78
2022/10/26 03:16:46;;;;;;;6.75;3.88;;;;;;;;;;5016083;28;20516;-78
2022/10/26 03:19:13;;;;;;;6.82;4.20;;;;;;;;;;5006426;28;20232;-80
2022/10/26 03:21:41;;;;;;;7.43;4.25;;;;;;;;;;5009952;28;20065;-77
2022/10/26 03:24:08;;;;;;;6.53;3.90;;;;;;;;;;5007359;28;20041;-79
2022/10/26 03:26:34;;;;;;;8.38;4.43;;;;;;;;;;5010507;28;20057;-79
2022/10/26 03:29:00;;;;;;;9.98;3.80;;;;;;;;;;5010385;28;20045;-78
2022/10/26 03:31:27;;;;;;;6.18;3.85;;;;;;;;;;4992708;28;20053;-79
2022/10/26 03:33:53;;;;;;;13.43;3.78;;;;;;;;;;5007781;28;20143;-78
2022/10/26 03:36:19;;;;;;;10.52;3.75;;;;;;;;;;5008401;28;20449;-78
2022/10/26 03:38:46;;;;;;;8.60;3.65;;;;;;;;;;5006942;28;20050;-78
2022/10/26 03:41:12;;;;;;;7.95;3.80;;;;;;;;;;5009019;28;20068;-79
2022/10/26 03:43:39;;;;;;;10.52;4.10;;;;;;;;;;5006866;28;20059;-77
2022/10/26 03:46:05;;;;;;;11.27;4.22;;;;;;;;;;5008414;28;20046;-77
2022/10/26 03:48:31;;;;;;;6.90;3.85;;;;;;;;;;5007781;28;20061;-78
2022/10/26 03:50:58;;;;;;;8.52;4.50;;;;;;;;;;5007788;28;20148;-79
2022/10/26 03:53:25;;;;;;;9.30;4.43;;;;;;;;;;5007378;28;20340;-78
2022/10/26 03:55:52;;;;;;;8.20;4.72;;;;;;;;;;4990332;28;20426;-77
2022/10/26 03:58:18;;;;;;;9.02;4.45;;;;;;;;;;5006507;28;20054;-77
2022/10/26 04:00:45;;;;;;;10.80;4.45;;;;;;;;;;4990961;28;20048;-78
2022/10/26 04:03:12;;;;;;;7.80;4.32;;;;;;;;;;4989389;28;20137;-78
2022/10/26 04:05:38;;;;;;;13.38;4.43;;;;;;;;;;5007320;28;20054;-77
2022/10/26 04:08:04;;;;;;;17.30;4.88;;;;;;;;;;5011135;28;20499;-78
2022/10/26 04:10:31;;;;;;;13.30;4.93;;;;;;;;;;5011705;28;20564;-77
2022/10/26 04:12:59;;;;;;;8.65;4.75;;;;;;;;;;5011691;28;20490;-77
2022/10/26 04:15:25;;;;;;;10.60;4.75;;;;;;;;;;4995742;28;20054;-79
2022/10/26 04:17:58;;;;;;;11.68;4.68;;;;;;;;;;5012123;28;20338;-78
2022/10/26 04:20:25;;;;;;;10.93;4.95;;;;;;;;;;5012161;28;20422;-80
2022/10/26 04:23:02;;;;;;;10.45;4.63;;;;;;;;;;4995417;28;20045;-79
2022/10/26 04:25:29;;;;;;;9.55;4.25;;;;;;;;;;5014885;28;20399;-79
2022/10/26 04:27:59;;;;;;;11.80;4.43;;;;;;;;;;5015020;28;20077;-79
2022/10/26 04:30:25;;;;;;;8.45;4.15;;;;;;;;;;5014062;28;20080;-78
2022/10/26 04:32:51;;;;;;;8.77;3.80;;;;;;;;;;5011378;28;20050;-78
2022/10/26 04:35:18;;;;;;;10.38;4.00;;;;;;;;;;4994233;28;20234;-79
2022/10/26 04:37:44;;;;;;;8.98;4.03;;;;;;;;;;5012153;28;20046;-79
2022/10/26 04:40:10;;;;;;;9.43;4.40;;;;;;;;;;5011226;28;20438;-78
2022/10/26 04:42:44;;;;;;;9.80;4.30;;;;;;;;;;5011825;28;20057;-79
2022/10/26 04:45:12;;;;;;;14.82;3.88;;;;;;;;;;5011305;28;20572;-78
2022/10/26 04:47:38;;;;;;;11.70;4.03;;;;;;;;;;5014149;28;20053;-79
2022/10/26 04:50:05;;;;;;;9.77;3.80;;;;;;;;;;5017993;28;20053;-79
2022/10/26 04:52:31;;;;;;;8.27;4.30;;;;;;;;;;5017978;28;20058;-79
2022/10/26 04:54:58;;;;;;;11.50;4.60;;;;;;;;;;5020278;28;20060;-79
2022/10/26 04:57:24;;;;;;;11.15;4.57;;;;;;;;;;5021085;28;20050;-79
2022/10/26 04:59:50;;;;;;;11.63;4.15;;;;;;;;;;5016478;28;20058;-78
2022/10/26 05:02:17;;;;;;;8.40;3.72;;;;;;;;;;5011819;28;20061;-78
2022/10/26 05:04:43;;;;;;;6.50;3.78;;;;;;;;;;5011234;28;20050;-79
2022/10/26 05:07:10;;;;;;;10.07;4.07;;;;;;;;;;5012633;28;20050;-78
2022/10/26 05:09:36;;;;;;;10.00;3.70;;;;;;;;;;5010580;28;20057;-79
2022/10/26 05:12:02;;;;;;;11.77;4.45;;;;;;;;;;5011820;28;20056;-80
2022/10/26 05:14:29;;;;;;;9.80;4.40;;;;;;;;;;5010952;28;20054;-78
2022/10/26 05:16:56;;;;;;;12.77;4.85;;;;;;;;;;5012897;28;20383;-79
2022/10/26 05:19:23;;;;;;;11.98;5.25;;;;;;;;;;5006829;28;20054;-79
2022/10/26 05:21:52;;;;;;;11.18;4.95;;;;;;;;;;5012289;28;20073;-78
2022/10/26 05:24:18;;;;;;;12.48;4.47;;;;;;;;;;4992340;28;20046;-79
2022/10/26 05:26:45;;;;;;;10.77;4.55;;;;;;;;;;4995256;28;20060;-80
2022/10/26 05:29:11;;;;;;;9.55;4.57;;;;;;;;;;5011638;28;20046;-79
2022/10/26 05:31:37;;;;;;;13.82;4.68;;;;;;;;;;4994164;28;20046;-78
2022/10/26 05:34:04;;;;;;;11.68;4.05;;;;;;;;;;5009421;28;20057;-77
2022/10/26 05:36:30;;;;;;;9.77;4.60;;;;;;;;;;5012162;28;20046;-79
2022/10/26 05:38:57;;;;;;;9.50;4.20;;;;;;;;;;5010381;28;20619;-79
2022/10/26 05:41:24;;;;;;;9.27;3.95;;;;;;;;;;5012979;28;20046;-80
2022/10/26 05:43:50;;;;;;;10.13;4.30;;;;;;;;;;5011842;28;20129;-80
2022/10/26 05:46:16;;;;;;;7.93;4.00;;;;;;;;;;5013931;28;20050;-80
2022/10/26 05:48:43;;;;;;;10.95;4.53;;;;;;;;;;5010958;28;20108;-80
2022/10/26 05:51:11;;;;;;;11.40;4.47;;;;;;;;;;4993815;28;20414;-79
2022/10/26 05:53:37;;;;;;;9.65;3.92;;;;;;;;;;5019906;28;20470;-79
2022/10/26 05:56:15;;;;;;;11.13;4.47;;;;;;;;;;5027722;28;20061;-81
2022/10/26 05:58:42;;;;;;;9.73;4.38;;;;;;;;;;5026436;28;20601;-80
2022/10/26 06:01:16;;;;;;;8.90;4.20;;;;;;;;;;5011439;28;20046;-82
2022/10/26 06:04:06;;;;;;;6.05;3.85;;;;;;;;;;5026083;28;20606;-80
2022/10/26 06:06:37;;;;;;;14.00;4.22;;;;;;;;;;5005498;28;20053;-81
2022/10/26 06:09:03;;;;;;;11.63;4.50;;;;;;;;;;5007609;28;20054;-81
2022/10/26 06:11:30;;;;;;;10.15;4.05;;;;;;;;;;5027232;28;20073;-81
2022/10/26 06:13:59;;;;;;;10.18;4.30;;;;;;;;;;5025106;28;20057;-79
2022/10/26 06:16:25;;;;;;;9.50;4.70;;;;;;;;;;5026997;28;20513;-81
2022/10/26 06:19:10;;;;;;;9.75;4.45;;;;;;;;;;5022234;28;20133;-81
2022/10/26 06:21:39;;;;;;;7.80;4.18;;;;;;;;;;5026673;28;20052;-80
2022/10/26 06:24:26;;;;;;;9.18;4.28;;;;;;;;;;5022978;28;20060;-81
2022/10/26 06:26:58;;;;;;;7.60;4.25;;;;;;;;;;5027066;28;20085;-80
2022/10/26 06:29:34;;;;;;;10.88;4.85;;;;;;;;;;5025986;28;20049;-81
2022/10/26 06:32:00;;;;;;;11.27;3.97;;;;;;;;;;5025781;28;20058;-79
2022/10/26 06:34:31;;;;;;;8.32;3.95;;;;;;;;;;5024912;28;20052;-80
2022/10/26 06:36:59;;;;;;;13.95;4.07;;;;;;;;;;5015004;28;20048;-81
2022/10/26 06:39:28;;;;;;;12.30;4.43;;;;;;;;;;5034406;28;20117;-81
2022/10/26 06:41:55;;;;;;;7.88;3.90;;;;;;;;;;5035259;28;20037;-80
2022/10/26 06:44:22;;;;;;;12.27;4.78;;;;;;;;;;5027280;28;20080;-81
2022/10/26 06:46:49;;;;;;;10.93;4.90;;;;;;;;;;5027839;28;20056;-81
2022/10/26 06:49:21;;;;;;;15.70;6.13;;;;;;;;;;5026022;28;20053;-81
2022/10/26 06:51:51;;;;;;;14.07;6.05;;;;;;;;;;5028359;28;20053;-81
2022/10/26 06:54:26;;;;;;;14.77;7.20;;;;;;;;;;5026067;28;20118;-81
2022/10/26 06:56:52;;;;;;;18.73;9.80;;;;;;;;;;5026893;28;20054;-81
2022/10/26 06:59:27;;;;;;;23.40;9.80;;;;;;;;;;5026495;28;20054;-80
2022/10/26 07:01:54;;;;;;;19.13;7.57;;;;;;;;;;5027315;28;20056;-81
2022/10/26 07:04:21;;;;;;;15.60;5.63;;;;;;;;;;5026289;28;20050;-80
2022/10/26 07:06:47;;;;;;;11.65;5.30;;;;;;;;;;5029261;28;20041;-81
2022/10/26 07:09:13;;;;;;;16.33;5.80;;;;;;;;;;5026978;28;20053;-80
2022/10/26 07:11:40;;;;;;;16.83;5.40;;;;;;;;;;5029859;28;20058;-79
2022/10/26 07:14:07;;;;;;;14.40;5.15;;;;;;;;;;5030248;28;20057;-80
2022/10/26 07:16:33;;;;;;;13.32;4.78;;;;;;;;;;5030985;28;20114;-80
2022/10/26 07:19:00;;;;;;;11.68;4.70;;;;;;;;;;5012258;28;20064;-81
2022/10/26 07:21:26;;;;;;;10.88;4.68;;;;;;;;;;5031239;28;20041;-80
2022/10/26 07:23:55;;;;;;;12.50;4.28;;;;;;;;;;5028225;28;20048;-80
2022/10/26 07:26:24;;;;;;;12.15;4.88;;;;;;;;;;5031498;28;20057;-80
2022/10/26 07:28:51;;;;;;;11.80;3.80;;;;;;;;;;5032531;28;20057;-80
2022/10/26 07:31:17;;;;;;;13.55;4.68;;;;;;;;;;5015925;28;20046;-80
2022/10/26 07:33:44;;;;;;;12.23;4.53;;;;;;;;;;5031522;28;20034;-79
2022/10/26 07:36:10;;;;;;;10.35;3.92;;;;;;;;;;5026909;28;20050;-80
2022/10/26 07:38:37;;;;;;;12.63;4.10;;;;;;;;;;5025365;28;20132;-79
2022/10/26 07:41:04;;;;;;;10.45;4.28;;;;;;;;;;5023907;28;20046;-80
2022/10/26 07:43:30;;;;;;;9.68;3.97;;;;;;;;;;4998833;28;20459;-80
2022/10/26 07:45:57;;;;;;;10.90;4.18;;;;;;;;;;5018518;28;20141;-79
2022/10/26 07:48:23;;;;;;;8.93;4.05;;;;;;;;;;5017189;28;20046;-80
2022/10/26 07:50:50;;;;;;;14.63;4.00;;;;;;;;;;5016567;28;20046;-80
2022/10/26 07:53:16;;;;;;;14.30;4.13;;;;;;;;;;5015045;28;20497;-80
2022/10/26 07:55:42;;;;;;;8.23;3.50;;;;;;;;;;5018873;28;20088;-80
2022/10/26 07:58:09;;;;;;;20.05;4.60;;;;;;;;;;5018884;28;20064;-80
2022/10/26 08:00:35;;;;;;;10.75;4.70;;;;;;;;;;5002708;28;20053;-79
2022/10/26 08:03:01;;;;;;;15.15;5.20;;;;;;;;;;5018247;28;20042;-81
2022/10/26 08:05:28;;;;;;;20.80;7.72;;;;;;;;;;5020313;28;20456;-79
2022/10/26 08:07:54;;;;;;;14.93;5.38;;;;;;;;;;5020617;28;20061;-80
2022/10/26 08:10:21;;;;;;;14.20;5.63;;;;;;;;;;5018857;28;20138;-80
2022/10/26 08:12:47;;;;;;;8.15;4.03;;;;;;;;;;5020241;28;20081;-81
2022/10/26 08:15:13;;;;;;;9.77;3.40;;;;;;;;;;5021748;28;20062;-80
2022/10/26 08:17:40;;;;;;;17.50;3.83;;;;;;;;;;5019864;28;20052;-81
2022/10/26 08:20:07;;;;;;;13.32;2.50;;;;;;;;;;5023303;28;20046;-81
2022/10/26 08:22:35;;;;;;;8.10;1.95;;;;;;;;;;5024116;28;20076;-80
2022/10/26 08:25:01;;;;;;;10.90;2.60;;;;;;;;;;5024714;28;20060;-81
2022/10/26 08:27:27;;;;;;;9.73;2.33;;;;;;;;;;5011376;28;20079;-80
2022/10/26 08:29:54;;;;;;;5.50;1.98;;;;;;;;;;5010327;28;20337;-80
2022/10/26 08:32:20;;;;;;;8.32;2.30;;;;;;;;;;5020654;28;20046;-81
2022/10/26 08:34:47;;;;;;;10.95;2.30;;;;;;;;;;5017318;28;20056;-81
2022/10/26 08:37:13;;;;;;;7.13;2.08;;;;;;;;;;5022389;28;20057;-80
2022/10/26 08:39:39;;;;;;;8.05;2.00;;;;;;;;;;5018225;28;20058;-80
2022/10/26 08:42:11;;;;;;;7.03;2.10;;;;;;;;;;5003045;28;20062;-80
2022/10/26 08:44:40;;;;;;;10.43;1.90;;;;;;;;;;5019388;28;20054;-80
2022/10/26 08:47:17;;;;;;;11.50;2.30;;;;;;;;;;5023137;28;20114;-81
2022/10/26 08:49:56;;;;;;;7.30;2.15;;;;;;;;;;5023109;28;20129;-81
2022/10/26 08:52:27;;;;;;;6.65;2.33;;;;;;;;;;5023462;28;20137;-80
2022/10/26 08:54:55;;;;;;;5.82;2.20;;;;;;;;;;5027103;28;20429;-80
2022/10/26 08:57:27;;;;;;;5.53;2.47;;;;;;;;;;5010813;28;20122;-81
2022/10/26 08:59:59;;;;;;;5.10;1.50;;;;;;;;;;5011752;28;20080;-81
2022/10/26 09:02:25;;;;;;;4.60;1.80;;;;;;;;;;5029384;28;20109;-79
2022/10/26 09:04:52;;;;;;;6.50;2.10;;;;;;;;;;5028527;28;20437;-81
2022/10/26 09:07:19;;;;;;;4.18;1.48;;;;;;;;;;5030989;28;20058;-81
2022/10/26 09:10:01;;;;;;;4.03;1.50;;;;;;;;;;5028789;28;20077;-81
2022/10/26 09:12:36;;;;;;;6.78;1.25;;;;;;;;;;5029817;28;20133;-80
2022/10/26 09:15:02;;;;;;;;;;;;;;;;;;5031406;28;20141;-81
2022/10/26 09:17:29;;;;;;;;;;;;;;;;;;5027023;28;19971;-80
2022/10/26 09:19:55;;;;;;;;;;;;;;;;;;5028343;28;20379;-80
2022/10/26 09:22:32;;;;;;;4.10;1.25;;;;;;;;;;5028316;28;19960;-81
2022/10/26 09:25:04;;;;;;;5.20;1.70;;;;;;;;;;5029384;28;20050;-80
2022/10/26 09:27:36;;;;;;;5.22;1.40;;;;;;;;;;5030022;28;20114;-81
2022/10/26 09:30:03;;;;;;;3.55;1.08;;;;;;;;;;5029174;28;20073;-81
2022/10/26 09:32:33;;;;;;;3.25;0.80;;;;;;;;;;5011359;28;20089;-81
2022/10/26 09:35:14;;;;;;;2.58;1.35;;;;;;;;;;5029964;28;20066;-81
2022/10/26 09:37:45;;;;;;;4.68;1.10;;;;;;;;;;5012246;28;20046;-79
2022/10/26 09:40:18;;;;;;;5.28;1.00;;;;;;;;;;5012318;28;20068;-78
2022/10/26 09:42:45;;;;;;;2.25;0.65;;;;;;;;;;5028929;28;20046;-81
2022/10/26 09:45:34;;;;;;;3.30;0.70;;;;;;;;;;5011438;28;20109;-81
2022/10/26 09:48:11;;;;;;;3.33;0.90;;;;;;;;;;5022824;28;20046;-81
2022/10/26 09:50:39;;;;;;;4.68;1.10;;;;;;;;;;5030021;28;20117;-81
2022/10/26 09:53:05;;;;;;;3.90;0.73;;;;;;;;;;5028942;28;20117;-81
2022/10/26 09:55:33;;;;;;;1.65;0.52;;;;;;;;;;5031072;28;20045;-81
2022/10/26 09:58:02;;;;;;;2.05;0.75;;;;;;;;;;5030548;28;20046;-82
2022/10/26 10:00:29;;;;;;;5.68;0.88;;;;;;;;;;5030135;28;20097;-80
2022/10/26 10:02:57;;;;;;;3.88;0.88;;;;;;;;;;5029813;28;20041;-80
2022/10/26 10:05:26;;;;;;;1.02;0.60;;;;;;;;;;5033779;28;20085;-80
2022/10/26 10:08:20;;;;;;;2.00;0.80;;;;;;;;;;5032632;28;20050;-79
2022/10/26 10:10:58;;;;;;;1.30;0.75;;;;;;;;;;5024809;28;20109;-80
2022/10/26 10:13:26;;;;;;;1.67;0.70;;;;;;;;;;5025817;28;20056;-80
2022/10/26 10:15:54;;;;;;;2.85;0.70;;;;;;;;;;5026194;28;20050;-79
2022/10/26 10:18:23;;;;;;;2.60;0.77;;;;;;;;;;5026804;28;20497;-80
2022/10/26 10:20:53;;;;;;;3.63;0.85;;;;;;;;;;5025990;28;20056;-80
2022/10/26 10:23:27;;;;;;;3.42;1.00;;;;;;;;;;5022974;28;20066;-79
2022/10/26 10:26:01;;;;;;;1.38;0.70;;;;;;;;;;5026529;28;20109;-80
2022/10/26 10:28:28;;;;;;;1.40;0.80;;;;;;;;;;5026573;28;20114;-80
2022/10/26 10:30:58;;;;;;;2.60;0.98;;;;;;;;;;5026318;28;20058;-80
2022/10/26 10:33:38;;;;;;;2.28;0.80;;;;;;;;;;5026679;28;20420;-79
2022/10/26 10:36:07;;;;;;;3.58;0.98;;;;;;;;;;5025746;28;20101;-80
2022/10/26 10:38:38;;;;;;;3.10;0.70;;;;;;;;;;5026967;28;20062;-80
2022/10/26 10:41:14;;;;;;;2.03;0.70;;;;;;;;;;5024539;28;20175;-80
2022/10/26 10:43:40;;;;;;;;;;;;;;;;;;5024771;28;20101;-80
2022/10/26 10:46:07;;;;;;;4.30;0.90;;;;;;;;;;5024547;28;19963;-81
2022/10/26 10:48:33;;;;;;;2.05;0.77;;;;;;;;;;5024474;28;20082;-80
2022/10/26 10:51:11;;;;;;;1.95;0.60;;;;;;;;;;5025054;28;20046;-80
2022/10/26 10:53:40;;;;;;;3.50;0.80;;;;;;;;;;5004930;28;20058;-80
2022/10/26 10:56:13;;;;;;;1.40;0.75;;;;;;;;;;5024225;28;20124;-80
2022/10/26 10:58:42;;;;;;;2.85;0.90;;;;;;;;;;5023766;28;20050;-79
2022/10/26 11:01:12;;;;;;;4.60;1.13;;;;;;;;;;5024225;28;20049;-79
2022/10/26 11:03:57;;;;;;;3.20;0.65;;;;;;;;;;5023630;28;20045;-80
2022/10/26 11:06:27;;;;;;;5.60;0.70;;;;;;;;;;5025437;28;20073;-80
2022/10/26 11:09:06;;;;;;;2.60;0.88;;;;;;;;;;5024113;28;20121;-80
2022/10/26 11:11:37;;;;;;;1.10;0.68;;;;;;;;;;5026324;28;20049;-80
2022/10/26 11:14:13;;;;;;;2.25;0.90;;;;;;;;;;5024923;28;20085;-81
2022/10/26 11:16:44;;;;;;;2.80;0.77;;;;;;;;;;5025332;28;20050;-80
2022/10/26 11:19:25;;;;;;;3.50;0.70;;;;;;;;;;5022795;28;20056;-79
2022/10/26 11:21:53;;;;;;;5.18;0.60;;;;;;;;;;5015083;28;20061;-79
2022/10/26 11:24:20;;;;;;;3.08;0.70;;;;;;;;;;5010242;28;20576;-81
2022/10/26 11:27:13;;;;;;;3.50;0.73;;;;;;;;;;5007881;28;20056;-81
2022/10/26 11:29:45;;;;;;;3.30;0.90;;;;;;;;;;5001543;28;20081;-81
2022/10/26 11:32:14;;;;;;;5.53;0.88;;;;;;;;;;5025248;28;20125;-78
2022/10/26 11:34:46;;;;;;;5.80;0.80;;;;;;;;;;5025365;28;20050;-81
2022/10/26 11:37:21;;;;;;;3.25;0.90;;;;;;;;;;5025667;28;20054;-81
2022/10/26 11:40:06;;;;;;;1.70;0.80;;;;;;;;;;5023970;28;20060;-81
2022/10/26 11:42:39;;;;;;;1.47;0.53;;;;;;;;;;5024658;28;20050;-80
2022/10/26 11:45:18;;;;;;;2.17;0.70;;;;;;;;;;5023718;28;20046;-81
2022/10/26 11:47:53;;;;;;;2.25;0.73;;;;;;;;;;5025002;28;20078;-81
2022/10/26 11:50:22;;;;;;;2.83;0.90;;;;;;;;;;5024498;28;20065;-82
2022/10/26 11:52:55;;;;;;;3.35;1.00;;;;;;;;;;5024397;28;20109;-81
2022/10/26 11:55:21;;;;;;;2.42;0.90;;;;;;;;;;5025539;28;20105;-81
2022/10/26 11:57:49;;;;;;;3.97;0.80;;;;;;;;;;5008819;28;20050;-81
2022/10/26 12:00:17;;;;;;;3.38;0.70;;;;;;;;;;5025627;28;20085;-81
2022/10/26 12:02:47;;;;;;;2.33;0.77;;;;;;;;;;5006359;28;20084;-79
2022/10/26 12:05:14;;;;;;;2.78;1.08;;;;;;;;;;5006424;28;20113;-80
2022/10/26 12:07:43;;;;;;;2.13;0.93;;;;;;;;;;5002947;28;20058;-80
2022/10/26 12:10:14;;;;;;;1.75;0.68;;;;;;;;;;5020269;28;20133;-80
2022/10/26 12:12:57;;;;;;;1.88;0.65;;;;;;;;;;5021114;28;20093;-80
2022/10/26 12:15:26;;;;;;;6.35;0.90;;;;;;;;;;5003917;28;20129;-79
2022/10/26 12:18:17;;;;;;;2.58;0.68;;;;;;;;;;5008276;28;20445;-80
2022/10/26 12:21:02;;;;;;;1.92;0.82;;;;;;;;;;5021780;28;20167;-79
2022/10/26 12:23:30;;;;;;;4.13;0.70;;;;;;;;;;5016993;28;20058;-79
2022/10/26 12:26:22;;;;;;;4.38;0.70;;;;;;;;;;5014133;28;20049;-80
2022/10/26 12:29:08;;;;;;;1.08;0.60;;;;;;;;;;5017761;28;20053;-77
2022/10/26 12:31:34;;;;;;;1.42;0.65;;;;;;;;;;5006302;28;20072;-78
2022/10/26 12:34:09;;;;;;;1.27;0.60;;;;;;;;;;5021946;28;20491;-78
2022/10/26 12:36:47;;;;;;;2.53;0.60;;;;;;;;;;5028636;28;20077;-79
2022/10/26 12:39:32;;;;;;;1.52;0.65;;;;;;;;;;5009067;28;20106;-79
2022/10/26 12:42:05;;;;;;;3.50;0.90;;;;;;;;;;5025959;28;20120;-79
2022/10/26 12:44:31;;;;;;;2.50;0.60;;;;;;;;;;5028115;28;20069;-78
2022/10/26 12:46:58;;;;;;;3.25;0.70;;;;;;;;;;5032191;28;20068;-78
2022/10/26 12:49:43;;;;;;;1.17;0.45;;;;;;;;;;5029959;28;20126;-78
2022/10/26 12:52:19;;;;;;;3.28;0.70;;;;;;;;;;5029906;28;20141;-78
2022/10/26 12:54:56;;;;;;;2.63;0.60;;;;;;;;;;4999030;28;20057;-78
2022/10/26 12:57:37;;;;;;;6.95;0.77;;;;;;;;;;5018091;28;20054;-77
2022/10/26 13:00:04;;;;;;;1.48;0.60;;;;;;;;;;4998575;28;20050;-78
2022/10/26 13:02:43;;;;;;;1.15;0.55;;;;;;;;;;5015645;28;20065;-78
2022/10/26 13:05:18;;;;;;;1.30;0.40;;;;;;;;;;5014457;28;20050;-78
2022/10/26 13:07:45;;;;;;;;;;;;;;;;;;5017172;28;20133;-78
2022/10/26 13:10:12;;;;;;;1.10;0.50;;;;;;;;;;5016188;28;19956;-77
2022/10/26 13:12:51;;;;;;;1.95;0.60;;;;;;;;;;5017289;28;20137;-79
2022/10/26 13:15:21;;;;;;;3.42;0.63;;;;;;;;;;5023232;28;20185;-79
2022/10/26 13:17:53;;;;;;;2.45;0.65;;;;;;;;;;5004280;28;20421;-79
2022/10/26 13:20:20;;;;;;;3.85;0.70;;;;;;;;;;4999598;28;20050;-78
2022/10/26 13:22:46;;;;;;;1.85;0.70;;;;;;;;;;5014850;28;20417;-78
2022/10/26 13:25:21;;;;;;;3.65;0.63;;;;;;;;;;5014428;28;20469;-78
2022/10/26 13:28:02;;;;;;;3.65;0.70;;;;;;;;;;5025692;28;20122;-77
2022/10/26 13:30:38;;;;;;;2.38;0.55;;;;;;;;;;5013961;28;20113;-78
2022/10/26 13:33:07;;;;;;;1.88;0.70;;;;;;;;;;5018512;28;20052;-78
2022/10/26 13:35:33;;;;;;;2.40;0.60;;;;;;;;;;5015101;28;20056;-78
2022/10/26 13:38:05;;;;;;;1.90;0.75;;;;;;;;;;5013699;28;20405;-77
2022/10/26 13:40:35;;;;;;;1.17;0.57;;;;;;;;;;4995522;28;20054;-78
2022/10/26 13:43:03;;;;;;;3.03;0.90;;;;;;;;;;5012673;28;20050;-78
2022/10/26 13:45:30;;;;;;;2.10;0.55;;;;;;;;;;5013443;28;20149;-78
2022/10/26 13:48:02;;;;;;;2.83;0.82;;;;;;;;;;5014399;28;20072;-78
2022/10/26 13:50:46;;;;;;;3.97;1.00;;;;;;;;;;5013662;28;20569;-76
2022/10/26 13:53:19;;;;;;;1.90;0.70;;;;;;;;;;5012653;28;20125;-78
2022/10/26 13:55:46;;;;;;;7.68;0.90;;;;;;;;;;5013542;28;20136;-78
2022/10/26 13:58:44;;;;;;;2.30;0.75;;;;;;;;;;5014662;28;20056;-78
2022/10/26 14:01:15;;;;;;;2.42;0.70;;;;;;;;;;4964699;28;20149;-78
2022/10/26 14:03:42;;;;;;;2.22;1.08;;;;;;;;;;4995708;28;20054;-78
2022/10/26 14:06:09;;;;;;;4.75;1.58;;;;;;;;;;5014101;28;20069;-78
2022/10/26 14:08:35;;;;;;;3.10;1.13;;;;;;;;;;5013639;28;20109;-78
2022/10/26 14:11:02;;;;;;;2.88;0.95;;;;;;;;;;5013344;28;20056;-78
2022/10/26 14:13:28;;;;;;;1.85;0.90;;;;;;;;;;4993103;28;20042;-78
2022/10/26 14:15:55;;;;;;;2.58;0.90;;;;;;;;;;4994425;28;20092;-78
2022/10/26 14:18:26;;;;;;;2.95;0.70;;;;;;;;;;4994282;28;20548;-78
2022/10/26 14:20:58;;;;;;;5.10;1.00;;;;;;;;;;4992241;28;20434;-78
2022/10/26 14:23:31;;;;;;;1.38;0.95;;;;;;;;;;4991346;28;20053;-78
2022/10/26 14:25:58;;;;;;;3.65;0.93;;;;;;;;;;4992830;28;20046;-78
2022/10/26 14:28:26;;;;;;;3.28;1.08;;;;;;;;;;4992831;28;20137;-78
2022/10/26 14:30:53;;;;;;;2.22;0.90;;;;;;;;;;4992736;28;20054;-78
2022/10/26 14:33:24;;;;;;;3.75;0.90;;;;;;;;;;4990944;28;20417;-78
2022/10/26 14:35:51;;;;;;;3.22;1.13;;;;;;;;;;5012364;28;20462;-79
2022/10/26 14:38:26;;;;;;;2.85;0.90;;;;;;;;;;4994580;28;20054;-78
2022/10/26 14:40:54;;;;;;;2.85;0.88;;;;;;;;;;4993910;28;20240;-77
2022/10/26 14:43:22;;;;;;;2.92;1.00;;;;;;;;;;4994572;28;20242;-77
2022/10/26 14:45:49;;;;;;;3.17;1.20;;;;;;;;;;5011141;28;20045;-78
2022/10/26 14:48:21;;;;;;;3.65;1.10;;;;;;;;;;5012684;28;20492;-76
2022/10/26 14:51:06;;;;;;;2.60;0.80;;;;;;;;;;5011898;28;20144;-80
2022/10/26 14:53:35;;;;;;;2.83;1.03;;;;;;;;;;5011322;28;20089;-79
2022/10/26 14:56:02;;;;;;;3.33;1.17;;;;;;;;;;4996147;28;20072;-79